Time;durP1;ratioP1;P1;durP2;ratioP2;P2;SDS_P1;SDS_P2;PMS_P1;PMS_P2;Temp;Humidity;BMP_temperature;BMP_pressure;BME280_temperature;BME280_humidity;BME280_pressure;Samples;Min_cycle;Max_cycle;Signal;HPM_P1;HPM_P2
2023/09/16 00:01:13;;;;;;;1.50;0.98;;;16.90;99.90;;;;;;5070881;28;20032;-86
2023/09/16 00:03:39;;;;;;;1.85;0.73;;;16.90;99.90;;;;;;5070927;28;20027;-88
2023/09/16 00:06:05;;;;;;;2.75;1.00;;;16.90;99.90;;;;;;5070589;28;20028;-88
2023/09/16 00:08:35;;;;;;;7.18;0.90;;;17.00;99.90;;;;;;5070045;28;20115;-86
2023/09/16 00:11:01;;;;;;;4.82;0.65;;;17.00;99.90;;;;;;5071533;28;20397;-86
2023/09/16 00:13:27;;;;;;;1.73;0.85;;;17.10;99.90;;;;;;5070567;28;20020;-86
2023/09/16 00:15:53;;;;;;;2.10;0.80;;;17.00;99.90;;;;;;5071581;28;20044;-87
2023/09/16 00:18:19;;;;;;;2.15;0.70;;;17.00;99.90;;;;;;5071530;28;20031;-86
2023/09/16 00:20:49;;;;;;;5.10;0.73;;;17.00;99.90;;;;;;5069410;28;20029;-86
2023/09/16 00:23:15;;;;;;;4.50;0.85;;;17.00;99.90;;;;;;5070050;28;20122;-86
2023/09/16 00:25:41;;;;;;;5.63;1.00;;;17.00;99.90;;;;;;5069705;28;20122;-86
2023/09/16 00:28:07;;;;;;;1.70;0.70;;;17.00;99.90;;;;;;5069930;28;20405;-84
2023/09/16 00:30:34;;;;;;;1.55;0.88;;;17.00;99.90;;;;;;5069321;28;20497;-86
2023/09/16 00:33:00;;;;;;;1.88;0.75;;;17.00;99.90;;;;;;5069840;28;20036;-84
2023/09/16 00:35:25;;;;;;;2.00;0.73;;;17.00;99.90;;;;;;5070162;28;20020;-85
2023/09/16 00:37:51;;;;;;;3.53;0.90;;;16.90;99.90;;;;;;5069673;28;20068;-83
2023/09/16 00:40:17;;;;;;;3.70;0.85;;;16.90;99.90;;;;;;5068556;28;20027;-83
2023/09/16 00:42:42;;;;;;;2.38;0.80;;;16.90;99.90;;;;;;5068612;28;20559;-81
2023/09/16 00:45:10;;;;;;;3.53;0.85;;;16.80;99.90;;;;;;5069783;28;20209;-82
2023/09/16 00:47:37;;;;;;;3.63;0.98;;;16.90;99.90;;;;;;5067939;28;20044;-80
2023/09/16 00:50:07;;;;;;;2.25;1.02;;;16.90;99.90;;;;;;5069471;28;20488;-80
2023/09/16 00:52:40;;;;;;;2.25;1.00;;;16.90;99.90;;;;;;5069744;28;20169;-85
2023/09/16 00:55:06;;;;;;;2.20;0.82;;;16.90;99.90;;;;;;5070001;28;20083;-82
2023/09/16 00:57:32;;;;;;;1.65;0.80;;;17.00;99.90;;;;;;5069923;28;20431;-87
2023/09/16 00:59:58;;;;;;;1.98;0.68;;;17.00;99.90;;;;;;5069968;28;20012;-86
2023/09/16 01:02:26;;;;;;;2.67;0.80;;;17.00;99.90;;;;;;5070020;28;20068;-86
2023/09/16 01:04:53;;;;;;;2.30;1.15;;;17.00;99.90;;;;;;5069996;28;20028;-86
2023/09/16 01:07:20;;;;;;;1.52;0.80;;;17.10;99.90;;;;;;5070205;28;20021;-86
2023/09/16 01:09:46;;;;;;;2.25;0.77;;;17.10;99.90;;;;;;5070083;28;20039;-87
2023/09/16 01:12:12;;;;;;;3.80;1.05;;;17.20;99.90;;;;;;5070479;28;20036;-86
2023/09/16 01:14:38;;;;;;;2.10;0.65;;;17.20;99.90;;;;;;5068769;28;20047;-87
2023/09/16 01:17:11;;;;;;;2.30;0.90;;;17.20;99.90;;;;;;5069651;28;20087;-86
2023/09/16 01:19:41;;;;;;;3.10;0.85;;;17.30;99.90;;;;;;5069099;28;20447;-87
2023/09/16 01:22:07;;;;;;;2.13;0.73;;;17.30;99.90;;;;;;5070085;28;20028;-85
2023/09/16 01:24:33;;;;;;;3.78;0.90;;;17.30;99.90;;;;;;5069793;28;20353;-87
2023/09/16 01:26:59;;;;;;;1.08;0.60;;;17.30;99.90;;;;;;5070359;28;20038;-86
2023/09/16 01:29:26;;;;;;;3.70;0.63;;;17.30;99.90;;;;;;5069075;28;20029;-87
2023/09/16 01:31:54;;;;;;;2.13;0.73;;;17.30;99.90;;;;;;5068840;28;20024;-87
2023/09/16 01:34:38;;;;;;;2.83;0.68;;;17.30;99.90;;;;;;5069171;28;20505;-87
2023/09/16 01:37:06;;;;;;;1.92;0.68;;;17.30;99.90;;;;;;5070125;28;20119;-86
2023/09/16 01:39:33;;;;;;;2.67;0.98;;;17.20;99.90;;;;;;5068062;28;20029;-87
2023/09/16 01:42:00;;;;;;;1.77;0.70;;;17.20;99.90;;;;;;5068977;28;20025;-86
2023/09/16 01:44:26;;;;;;;2.17;0.63;;;17.20;99.90;;;;;;5070664;28;20111;-87
2023/09/16 01:46:55;;;;;;;1.73;0.60;;;17.10;99.90;;;;;;5069471;28;20115;-86
2023/09/16 01:49:21;;;;;;;2.35;0.70;;;17.10;99.90;;;;;;5070432;28;20028;-86
2023/09/16 01:51:47;;;;;;;2.67;0.82;;;17.10;99.90;;;;;;5068718;28;20031;-87
2023/09/16 01:54:12;;;;;;;1.40;0.70;;;17.10;99.90;;;;;;5069106;28;20036;-88
2023/09/16 01:56:38;;;;;;;2.45;0.70;;;17.00;99.90;;;;;;5070284;28;20037;-88
2023/09/16 01:59:04;;;;;;;1.35;0.60;;;17.00;99.90;;;;;;5068374;28;20389;-87
2023/09/16 02:01:29;;;;;;;1.17;0.60;;;17.00;99.90;;;;;;5069751;28;20025;-86
2023/09/16 02:03:58;;;;;;;1.52;0.65;;;16.90;99.90;;;;;;5068725;28;20462;-86
2023/09/16 02:06:23;;;;;;;1.77;0.70;;;16.90;99.90;;;;;;5070158;28;20036;-87
2023/09/16 02:08:49;;;;;;;1.48;0.60;;;16.90;99.90;;;;;;5068482;28;20020;-87
2023/09/16 02:11:15;;;;;;;5.70;0.60;;;16.90;99.90;;;;;;5068664;28;20508;-86
2023/09/16 02:13:40;;;;;;;2.63;0.80;;;17.00;99.90;;;;;;5069594;28;20506;-83
2023/09/16 02:16:06;;;;;;;3.35;0.50;;;17.00;99.90;;;;;;5067874;28;20052;-86
2023/09/16 02:18:31;;;;;;;5.43;0.90;;;17.00;99.90;;;;;;5069816;28;20033;-86
2023/09/16 02:20:57;;;;;;;2.47;0.85;;;17.10;99.90;;;;;;5067900;28;20028;-85
2023/09/16 02:23:23;;;;;;;3.25;0.75;;;17.10;99.90;;;;;;5068739;28;20599;-85
2023/09/16 02:25:48;;;;;;;3.03;0.80;;;17.10;99.90;;;;;;5071282;28;20128;-84
2023/09/16 02:28:14;;;;;;;1.80;0.70;;;17.10;99.90;;;;;;5069880;28;20035;-87
2023/09/16 02:30:40;;;;;;;1.23;0.60;;;17.10;99.90;;;;;;5068846;28;20283;-88
2023/09/16 02:33:05;;;;;;;4.10;0.70;;;17.20;99.90;;;;;;5070600;28;20031;-88
2023/09/16 02:35:31;;;;;;;2.38;0.90;;;17.20;99.90;;;;;;5068748;28;20033;-87
2023/09/16 02:38:02;;;;;;;2.88;0.80;;;17.30;99.90;;;;;;5068622;28;20119;-88
2023/09/16 02:40:28;;;;;;;2.50;0.90;;;17.30;99.90;;;;;;5068567;28;20070;-87
2023/09/16 02:42:54;;;;;;;1.52;0.82;;;17.40;99.90;;;;;;5068284;28;20386;-86
2023/09/16 02:45:19;;;;;;;2.60;0.73;;;17.40;99.90;;;;;;5069943;28;20035;-88
2023/09/16 02:47:45;;;;;;;5.32;1.30;;;17.50;99.90;;;;;;5068594;28;20477;-88
2023/09/16 02:50:11;;;;;;;2.92;1.08;;;17.50;99.90;;;;;;5068825;28;20067;-87
2023/09/16 02:52:37;;;;;;;1.73;0.73;;;17.50;99.90;;;;;;5067699;28;20115;-85
2023/09/16 02:55:02;;;;;;;2.83;0.80;;;17.60;99.90;;;;;;5067676;28;20036;-87
2023/09/16 02:57:28;;;;;;;1.67;0.88;;;17.60;99.90;;;;;;5069061;28;20040;-85
2023/09/16 02:59:54;;;;;;;5.57;1.23;;;17.60;99.90;;;;;;5069348;28;20052;-86
2023/09/16 03:02:20;;;;;;;3.13;0.90;;;17.60;99.90;;;;;;5068183;28;20472;-87
2023/09/16 03:04:46;;;;;;;3.40;0.98;;;17.60;99.90;;;;;;5067792;28;20029;-87
2023/09/16 03:07:11;;;;;;;1.63;0.85;;;17.60;99.90;;;;;;5068853;28;20386;-88
2023/09/16 03:09:37;;;;;;;4.75;0.93;;;17.50;99.90;;;;;;5069098;28;20500;-87
2023/09/16 03:12:03;;;;;;;1.98;0.85;;;17.60;99.90;;;;;;5070070;28;20571;-89
2023/09/16 03:14:29;;;;;;;1.27;0.63;;;17.50;99.90;;;;;;5072040;28;20028;-87
2023/09/16 03:16:55;;;;;;;2.53;0.52;;;17.50;99.90;;;;;;5073104;28;20055;-88
2023/09/16 03:19:21;;;;;;;2.42;0.98;;;17.50;99.90;;;;;;5073690;28;20469;-87
2023/09/16 03:21:47;;;;;;;1.33;0.70;;;17.50;99.90;;;;;;5072230;28;20058;-87
2023/09/16 03:24:12;;;;;;;2.83;0.82;;;17.50;99.90;;;;;;5073324;28;20039;-86
2023/09/16 03:26:38;;;;;;;2.47;0.85;;;17.50;99.90;;;;;;5071989;28;20497;-85
2023/09/16 03:29:04;;;;;;;2.00;0.77;;;17.50;99.90;;;;;;5072122;28;20055;-88
2023/09/16 03:31:29;;;;;;;2.03;0.90;;;17.50;99.90;;;;;;5071627;28;20029;-87
2023/09/16 03:33:55;;;;;;;2.28;1.05;;;17.50;99.90;;;;;;5071689;28;20028;-87
2023/09/16 03:36:22;;;;;;;3.90;0.80;;;17.50;99.90;;;;;;5073289;28;20064;-87
2023/09/16 03:38:50;;;;;;;3.70;1.10;;;17.50;99.90;;;;;;5071624;28;20033;-89
2023/09/16 03:41:16;;;;;;;4.95;0.93;;;17.50;99.90;;;;;;5071865;28;20068;-88
2023/09/16 03:43:43;;;;;;;1.83;0.90;;;17.50;99.90;;;;;;5073121;28;20017;-87
2023/09/16 03:46:09;;;;;;;1.15;0.68;;;17.40;99.90;;;;;;5072069;28;20631;-85
2023/09/16 03:48:34;;;;;;;2.40;1.25;;;17.50;99.90;;;;;;5072594;28;20187;-88
2023/09/16 03:51:01;;;;;;;2.13;1.08;;;17.50;99.90;;;;;;5073117;28;20165;-87
2023/09/16 03:53:27;;;;;;;5.22;1.20;;;17.50;99.90;;;;;;5074026;28;20409;-87
2023/09/16 03:55:52;;;;;;;4.03;1.33;;;17.50;99.90;;;;;;5072551;28;20039;-86
2023/09/16 03:58:19;;;;;;;6.03;0.68;;;17.50;99.90;;;;;;5070458;28;20116;-86
2023/09/16 04:00:44;;;;;;;1.75;0.90;;;17.50;99.90;;;;;;5070100;28;20504;-86
2023/09/16 04:03:11;;;;;;;2.70;1.30;;;17.50;99.90;;;;;;5070179;28;20032;-85
2023/09/16 04:05:37;;;;;;;3.65;1.25;;;17.50;99.90;;;;;;5071296;28;20028;-84
2023/09/16 04:08:03;;;;;;;2.08;1.00;;;17.50;99.90;;;;;;5071322;28;20028;-85
2023/09/16 04:10:28;;;;;;;4.38;1.30;;;17.60;99.90;;;;;;5070754;28;20153;-83
2023/09/16 04:12:54;;;;;;;4.00;1.10;;;17.60;99.90;;;;;;5070856;28;20129;-85
2023/09/16 04:15:20;;;;;;;2.75;0.95;;;17.70;99.90;;;;;;5071297;28;20492;-85
2023/09/16 04:17:46;;;;;;;2.03;1.10;;;17.70;99.90;;;;;;5071163;28;20077;-85
2023/09/16 04:20:11;;;;;;;5.05;1.15;;;17.70;99.90;;;;;;5071318;28;20106;-87
2023/09/16 04:22:37;;;;;;;1.98;0.80;;;17.80;99.90;;;;;;5069992;28;20401;-87
2023/09/16 04:25:03;;;;;;;2.53;1.08;;;17.80;99.90;;;;;;5070835;28;20040;-85
2023/09/16 04:27:29;;;;;;;2.08;1.08;;;17.80;99.90;;;;;;5069537;28;20025;-86
2023/09/16 04:29:54;;;;;;;3.22;0.93;;;17.80;99.90;;;;;;5070096;28;20036;-85
2023/09/16 04:32:20;;;;;;;2.13;1.15;;;17.80;99.90;;;;;;5069414;28;20021;-85
2023/09/16 04:34:45;;;;;;;4.70;1.20;;;17.80;99.90;;;;;;5068788;28;20028;-87
2023/09/16 04:37:11;;;;;;;2.30;1.20;;;17.80;99.90;;;;;;5069513;28;20497;-82
2023/09/16 04:39:37;;;;;;;3.13;0.95;;;17.80;99.90;;;;;;5070050;28;20393;-85
2023/09/16 04:42:02;;;;;;;2.63;0.90;;;17.90;99.90;;;;;;5070521;28;20028;-86
2023/09/16 04:44:29;;;;;;;1.58;0.95;;;17.90;99.90;;;;;;5068801;28;20032;-84
2023/09/16 04:46:55;;;;;;;3.15;1.38;;;18.00;99.90;;;;;;5069990;28;20082;-83
2023/09/16 04:49:21;;;;;;;2.75;1.40;;;18.00;99.90;;;;;;5069885;28;20424;-84
2023/09/16 04:51:47;;;;;;;7.50;2.40;;;18.10;99.90;;;;;;5068686;28;20633;-87
2023/09/16 04:54:13;;;;;;;4.20;1.70;;;18.20;99.90;;;;;;5068844;28;20036;-85
2023/09/16 04:56:39;;;;;;;2.97;1.45;;;18.20;99.90;;;;;;5070139;28;20037;-85
2023/09/16 04:59:05;;;;;;;4.20;1.13;;;18.20;99.90;;;;;;5069887;28;20025;-84
2023/09/16 05:01:31;;;;;;;6.97;1.40;;;18.40;99.90;;;;;;5069869;28;20028;-84
2023/09/16 05:03:57;;;;;;;4.68;1.85;;;18.40;99.90;;;;;;5068430;28;20078;-85
2023/09/16 05:06:23;;;;;;;4.68;2.28;;;18.60;99.90;;;;;;5069859;28;20154;-84
2023/09/16 05:08:49;;;;;;;3.80;2.30;;;18.70;99.90;;;;;;5068638;28;20050;-84
2023/09/16 05:11:15;;;;;;;3.08;1.13;;;18.90;99.90;;;;;;5068591;28;20038;-83
2023/09/16 05:13:41;;;;;;;4.28;1.30;;;19.00;99.90;;;;;;5069652;28;20035;-85
2023/09/16 05:16:10;;;;;;;2.65;1.20;;;19.20;99.90;;;;;;5069621;28;20090;-85
2023/09/16 05:18:35;;;;;;;4.90;1.10;;;19.30;99.90;;;;;;5069447;28;20528;-84
2023/09/16 05:21:01;;;;;;;2.22;1.05;;;19.40;99.90;;;;;;5069734;28;20024;-84
2023/09/16 05:23:27;;;;;;;2.55;1.10;;;19.50;99.90;;;;;;5069506;28;20028;-84
2023/09/16 05:25:52;;;;;;;6.22;1.10;;;19.60;99.90;;;;;;5069066;28;20033;-83
2023/09/16 05:28:18;;;;;;;2.58;1.25;;;19.70;99.90;;;;;;5068445;28;20039;-83
2023/09/16 05:30:44;;;;;;;4.82;1.15;;;19.80;99.90;;;;;;5067790;28;20534;-84
2023/09/16 05:33:13;;;;;;;3.20;1.77;;;19.90;99.90;;;;;;5069107;28;20017;-84
2023/09/16 05:35:40;;;;;;;10.25;2.17;;;20.00;99.90;;;;;;5068706;28;20072;-82
2023/09/16 05:38:06;;;;;;;3.17;2.22;;;20.10;99.90;;;;;;5069333;28;20501;-82
2023/09/16 05:40:32;;;;;;;6.25;2.78;;;20.20;99.90;;;;;;5069059;28;20393;-81
2023/09/16 05:42:58;;;;;;;4.30;2.38;;;20.30;99.90;;;;;;5068009;28;20028;-81
2023/09/16 05:45:25;;;;;;;7.07;2.97;;;20.40;99.90;;;;;;5069101;28;20682;-80
2023/09/16 05:47:51;;;;;;;7.25;2.58;;;20.50;99.90;;;;;;5068100;28;20032;-80
2023/09/16 05:50:17;;;;;;;3.83;2.22;;;20.60;99.90;;;;;;5079723;28;20546;-79
2023/09/16 05:52:43;;;;;;;4.65;2.83;;;20.60;99.90;;;;;;5089497;28;20024;-81
2023/09/16 05:55:09;;;;;;;4.38;2.35;;;20.60;99.90;;;;;;5089984;28;20024;-81
2023/09/16 05:57:35;;;;;;;4.75;2.22;;;20.70;99.90;;;;;;5089718;28;20036;-82
2023/09/16 06:00:01;;;;;;;5.72;2.50;;;20.70;99.90;;;;;;5090085;28;20103;-81
2023/09/16 06:02:27;;;;;;;6.65;2.20;;;20.80;99.90;;;;;;5087918;28;20081;-81
2023/09/16 06:04:53;;;;;;;6.45;2.83;;;21.00;99.90;;;;;;5089146;28;20028;-80
2023/09/16 06:07:19;;;;;;;6.03;2.95;;;21.10;99.90;;;;;;5089449;28;20020;-82
2023/09/16 06:09:45;;;;;;;3.88;2.47;;;21.30;99.90;;;;;;5089177;28;20059;-82
2023/09/16 06:12:10;;;;;;;4.63;2.25;;;21.40;99.90;;;;;;5089143;28;20035;-82
2023/09/16 06:14:37;;;;;;;2.72;2.00;;;21.60;99.90;;;;;;5089292;28;20252;-81
2023/09/16 06:17:02;;;;;;;5.97;2.45;;;21.80;99.90;;;;;;5089637;28;20056;-81
2023/09/16 06:19:29;;;;;;;4.60;2.22;;;22.00;99.90;;;;;;5088858;28;20047;-84
2023/09/16 06:22:04;;;;;;;4.78;2.03;;;22.20;99.90;;;;;;5088248;28;20027;-83
2023/09/16 06:24:29;;;;;;;3.60;1.88;;;22.60;99.50;;;;;;5088538;28;20396;-81
2023/09/16 06:26:55;;;;;;;8.65;2.05;;;23.10;98.10;;;;;;5088342;28;20024;-81
2023/09/16 06:29:21;;;;;;;7.53;2.03;;;23.50;96.80;;;;;;5088796;28;20032;-83
2023/09/16 06:31:46;;;;;;;3.50;2.13;;;24.10;94.60;;;;;;5087187;28;20094;-83
2023/09/16 06:34:12;;;;;;;7.95;1.90;;;24.70;92.80;;;;;;5088119;28;20505;-83
2023/09/16 06:36:40;;;;;;;4.40;2.22;;;25.10;91.00;;;;;;5087810;28;20036;-80
2023/09/16 06:39:07;;;;;;;3.50;2.45;;;25.70;89.00;;;;;;5089431;28;20016;-82
2023/09/16 06:41:33;;;;;;;5.35;2.63;;;26.10;84.50;;;;;;5089187;28;20031;-80
2023/09/16 06:43:59;;;;;;;5.90;2.08;;;26.30;81.60;;;;;;5088526;28;20063;-80
2023/09/16 06:46:25;;;;;;;4.13;1.85;;;26.70;79.30;;;;;;5088635;28;20059;-79
2023/09/16 06:48:50;;;;;;;2.45;1.75;;;27.00;76.40;;;;;;5091685;28;20472;-80
2023/09/16 06:51:16;;;;;;;7.55;2.38;;;27.60;74.70;;;;;;5092991;28;20495;-82
2023/09/16 06:53:42;;;;;;;2.65;1.80;;;28.10;72.10;;;;;;5093170;28;20024;-82
2023/09/16 06:56:08;;;;;;;3.67;2.28;;;28.20;69.00;;;;;;5091563;28;20150;-81
2023/09/16 06:58:34;;;;;;;4.32;1.75;;;28.40;67.80;;;;;;5092643;28;20024;-80
2023/09/16 07:01:10;;;;;;;2.72;1.75;;;28.70;66.70;;;;;;5091396;28;20077;-80
2023/09/16 07:03:35;;;;;;;;;;;28.70;64.90;;;;;;5092861;28;20039;-81
2023/09/16 07:06:01;;;;;;;5.20;2.42;;;28.50;64.30;;;;;;5091362;28;20272;-81
2023/09/16 07:08:27;;;;;;;5.20;2.15;;;28.70;64.50;;;;;;5092737;28;20028;-82
2023/09/16 07:10:54;;;;;;;2.70;1.75;;;28.70;63.60;;;;;;5092636;28;20127;-79
2023/09/16 07:13:20;;;;;;;4.10;1.90;;;28.60;63.50;;;;;;5092454;28;20024;-81
2023/09/16 07:15:53;;;;;;;2.53;1.90;;;28.80;62.70;;;;;;5091852;28;20056;-80
2023/09/16 07:18:19;;;;;;;2.85;1.60;;;28.20;62.90;;;;;;5091174;28;20435;-81
2023/09/16 07:20:44;;;;;;;4.22;2.25;;;27.80;63.20;;;;;;5092387;28;20036;-81
2023/09/16 07:23:10;;;;;;;6.13;2.42;;;28.00;63.40;;;;;;5090758;28;20039;-80
2023/09/16 07:25:36;;;;;;;2.65;2.00;;;28.20;63.10;;;;;;5090913;28;20020;-80
2023/09/16 07:28:04;;;;;;;2.83;1.75;;;28.20;62.30;;;;;;5091049;28;20109;-81
2023/09/16 07:30:30;;;;;;;6.13;2.08;;;28.60;62.10;;;;;;5092072;28;20467;-80
2023/09/16 07:32:56;;;;;;;3.90;1.83;;;28.70;61.90;;;;;;5092011;28;20024;-79
2023/09/16 07:35:21;;;;;;;5.45;1.90;;;29.30;60.60;;;;;;5091603;28;20051;-81
2023/09/16 07:37:47;;;;;;;4.53;1.85;;;29.30;58.70;;;;;;5090572;28;20032;-81
2023/09/16 07:40:13;;;;;;;3.17;1.70;;;28.90;59.20;;;;;;5092026;28;20067;-81
2023/09/16 07:42:38;;;;;;;3.28;1.77;;;29.00;58.90;;;;;;5090286;28;20570;-80
2023/09/16 07:45:04;;;;;;;7.15;1.88;;;28.90;59.30;;;;;;5091840;28;20027;-80
2023/09/16 07:47:30;;;;;;;3.40;1.75;;;29.00;59.00;;;;;;5091815;28;20023;-80
2023/09/16 07:49:56;;;;;;;4.90;1.70;;;29.00;59.00;;;;;;5090250;28;20032;-81
2023/09/16 07:52:22;;;;;;;5.53;1.73;;;28.90;58.70;;;;;;5091322;28;20421;-81
2023/09/16 07:54:48;;;;;;;3.35;1.83;;;29.20;59.30;;;;;;5089414;28;20055;-81
2023/09/16 07:57:13;;;;;;;1.80;1.35;;;29.30;57.60;;;;;;5077325;28;20160;-81
2023/09/16 07:59:39;;;;;;;6.00;1.75;;;29.40;58.20;;;;;;5087002;28;20510;-82
2023/09/16 08:02:05;;;;;;;3.72;1.83;;;29.30;58.50;;;;;;5089516;28;20488;-81
2023/09/16 08:04:31;;;;;;;3.50;1.70;;;29.30;57.10;;;;;;5089457;28;20024;-81
2023/09/16 08:06:57;;;;;;;3.10;1.80;;;28.90;58.20;;;;;;5090749;28;20070;-81
2023/09/16 08:09:24;;;;;;;6.22;1.63;;;29.10;58.70;;;;;;5090867;28;20084;-82
2023/09/16 08:11:49;;;;;;;5.88;1.77;;;29.30;57.90;;;;;;5090662;28;20023;-81
2023/09/16 08:14:15;;;;;;;2.67;1.60;;;29.30;58.80;;;;;;5091457;28;20157;-80
2023/09/16 08:16:41;;;;;;;2.42;1.48;;;29.20;57.90;;;;;;5088762;28;20055;-82
2023/09/16 08:19:06;;;;;;;6.28;1.60;;;29.40;58.70;;;;;;5089418;28;20024;-82
2023/09/16 08:21:32;;;;;;;5.53;1.60;;;29.00;57.70;;;;;;5089601;28;20071;-81
2023/09/16 08:23:58;;;;;;;4.85;1.90;;;28.70;59.70;;;;;;5090415;28;20064;-81
2023/09/16 08:26:23;;;;;;;2.78;1.92;;;28.30;59.80;;;;;;5090599;28;20453;-82
2023/09/16 08:28:49;;;;;;;2.78;1.52;;;27.90;60.30;;;;;;5090652;28;20032;-82
2023/09/16 08:31:14;;;;;;;3.17;1.67;;;27.60;61.90;;;;;;5090078;28;20044;-83
2023/09/16 08:33:40;;;;;;;3.80;1.80;;;27.10;62.50;;;;;;5088853;28;20020;-80
2023/09/16 08:36:06;;;;;;;3.63;1.83;;;26.60;64.00;;;;;;5088418;28;20092;-81
2023/09/16 08:38:31;;;;;;;4.75;2.63;;;26.40;65.50;;;;;;5089916;28;20023;-81
2023/09/16 08:41:23;;;;;;;4.15;2.25;;;26.20;66.20;;;;;;5090116;28;20063;-82
2023/09/16 08:43:51;;;;;;;3.28;1.80;;;25.90;67.10;;;;;;5085942;28;20062;-81
2023/09/16 08:46:21;;;;;;;2.58;1.63;;;25.50;67.90;;;;;;5090045;28;20031;-81
2023/09/16 08:48:52;;;;;;;3.30;1.92;;;25.40;68.70;;;;;;5088399;28;20055;-81
2023/09/16 08:51:20;;;;;;;3.80;2.33;;;25.50;69.50;;;;;;5090139;28;20121;-81
2023/09/16 08:53:50;;;;;;;4.13;1.88;;;25.50;69.80;;;;;;5090549;28;20484;-80
2023/09/16 08:56:16;;;;;;;5.00;2.00;;;25.40;69.90;;;;;;5089942;28;20396;-80
2023/09/16 08:58:43;;;;;;;6.30;1.92;;;25.40;69.40;;;;;;5090922;28;20030;-81
2023/09/16 09:01:10;;;;;;;3.30;2.00;;;25.40;69.60;;;;;;5089513;28;20028;-81
2023/09/16 09:03:36;;;;;;;3.53;1.75;;;25.20;70.60;;;;;;5090763;28;20038;-81
2023/09/16 09:06:03;;;;;;;6.00;2.00;;;25.20;71.10;;;;;;5090589;28;20013;-82
2023/09/16 09:08:31;;;;;;;4.35;2.40;;;25.10;71.20;;;;;;5090413;28;20148;-81
2023/09/16 09:10:57;;;;;;;2.78;1.83;;;25.00;72.40;;;;;;5089473;28;20024;-80
2023/09/16 09:13:24;;;;;;;5.55;2.05;;;25.00;72.20;;;;;;5089129;28;20114;-80
2023/09/16 09:15:55;;;;;;;2.90;2.10;;;25.00;72.90;;;;;;5090272;28;20044;-81
2023/09/16 09:18:23;;;;;;;4.60;2.15;;;24.90;73.20;;;;;;5090443;28;20562;-80
2023/09/16 09:20:49;;;;;;;5.13;1.48;;;24.80;74.20;;;;;;5089407;28;20081;-80
2023/09/16 09:23:15;;;;;;;3.25;2.08;;;24.70;74.20;;;;;;5089371;28;20050;-81
2023/09/16 09:25:41;;;;;;;6.85;2.00;;;24.80;75.00;;;;;;5088317;28;20020;-79
2023/09/16 09:28:07;;;;;;;3.20;1.83;;;24.90;75.00;;;;;;5088229;28;20475;-80
2023/09/16 09:30:33;;;;;;;5.38;2.35;;;25.00;74.50;;;;;;5089998;28;20111;-81
2023/09/16 09:32:59;;;;;;;10.88;2.17;;;25.10;75.20;;;;;;5088778;28;20016;-81
2023/09/16 09:35:30;;;;;;;4.88;2.45;;;25.10;74.30;;;;;;5089721;28;20115;-82
2023/09/16 09:37:57;;;;;;;4.00;2.22;;;24.80;75.60;;;;;;5088826;28;20020;-80
2023/09/16 09:40:23;;;;;;;9.02;2.58;;;25.00;75.30;;;;;;5089709;28;20538;-81
2023/09/16 09:42:53;;;;;;;4.22;2.10;;;25.10;74.70;;;;;;5090012;28;20030;-81
2023/09/16 09:45:21;;;;;;;2.10;1.80;;;25.00;74.30;;;;;;5090051;28;20016;-81
2023/09/16 09:47:49;;;;;;;3.78;2.10;;;24.90;74.90;;;;;;5088571;28;20039;-81
2023/09/16 09:50:16;;;;;;;2.85;2.10;;;24.70;75.30;;;;;;5087764;28;20038;-82
2023/09/16 09:52:55;;;;;;;2.55;2.00;;;24.70;75.80;;;;;;5089527;28;20028;-81
2023/09/16 09:55:31;;;;;;;2.83;2.13;;;25.00;75.90;;;;;;5081835;28;20517;-82
2023/09/16 09:57:57;;;;;;;4.97;1.67;;;25.50;74.90;;;;;;5084027;28;20337;-81
2023/09/16 10:00:24;;;;;;;11.23;2.33;;;26.20;73.60;;;;;;5089129;28;20114;-82
2023/09/16 10:02:50;;;;;;;4.22;2.22;;;26.70;73.00;;;;;;5088139;28;20032;-81
2023/09/16 10:05:17;;;;;;;3.50;2.20;;;27.20;69.90;;;;;;5089162;28;20487;-82
2023/09/16 10:07:44;;;;;;;3.08;1.90;;;27.60;68.80;;;;;;5087809;28;20020;-82
2023/09/16 10:10:16;;;;;;;2.35;1.70;;;28.10;68.20;;;;;;5088088;28;20044;-82
2023/09/16 10:12:44;;;;;;;6.80;1.70;;;28.60;65.40;;;;;;5087692;28;20043;-83
2023/09/16 10:15:10;;;;;;;4.95;1.85;;;29.00;64.90;;;;;;5087503;28;20073;-82
2023/09/16 10:17:37;;;;;;;5.68;2.20;;;29.40;63.40;;;;;;5087721;28;20127;-82
2023/09/16 10:20:03;;;;;;;4.50;1.63;;;29.30;62.50;;;;;;5088346;28;20026;-81
2023/09/16 10:22:30;;;;;;;6.57;2.25;;;28.70;62.90;;;;;;5092055;28;20036;-82
2023/09/16 10:24:55;;;;;;;2.90;1.42;;;28.10;63.90;;;;;;5093325;28;20111;-80
2023/09/16 10:27:27;;;;;;;6.35;1.95;;;27.50;65.40;;;;;;5091658;28;20119;-81
2023/09/16 10:29:56;;;;;;;2.85;1.83;;;27.20;67.10;;;;;;5093518;28;20412;-81
2023/09/16 10:32:22;;;;;;;8.68;1.90;;;26.80;67.60;;;;;;5093154;28;20077;-82
2023/09/16 10:34:49;;;;;;;5.53;1.90;;;26.60;68.60;;;;;;5093333;28;20016;-82
2023/09/16 10:37:19;;;;;;;5.43;1.90;;;26.40;68.90;;;;;;5093453;28;20063;-81
2023/09/16 10:39:50;;;;;;;6.57;1.83;;;26.30;69.80;;;;;;5092909;28;20018;-82
2023/09/16 10:42:17;;;;;;;6.70;1.90;;;26.30;70.20;;;;;;5092976;28;20392;-81
2023/09/16 10:44:43;;;;;;;4.82;2.17;;;26.10;69.90;;;;;;5093248;28;20040;-82
2023/09/16 10:47:09;;;;;;;3.47;2.08;;;26.10;71.00;;;;;;5092945;28;20032;-81
2023/09/16 10:49:35;;;;;;;8.15;2.15;;;25.80;71.70;;;;;;5091935;28;20064;-81
2023/09/16 10:52:08;;;;;;;6.78;2.35;;;25.80;71.80;;;;;;5092628;28;20062;-81
2023/09/16 10:54:56;;;;;;;3.92;2.53;;;25.80;72.10;;;;;;5092652;28;20036;-83
2023/09/16 10:57:29;;;;;;;8.57;1.65;;;25.70;73.10;;;;;;5092440;28;20032;-83
2023/09/16 10:59:57;;;;;;;7.20;2.67;;;25.80;73.50;;;;;;5092407;28;20500;-82
2023/09/16 11:02:48;;;;;;;8.25;2.13;;;25.90;72.50;;;;;;5092378;28;20028;-82
2023/09/16 11:05:14;;;;;;;3.20;1.83;;;26.00;72.80;;;;;;5091457;28;20519;-82
2023/09/16 11:07:40;;;;;;;3.80;1.55;;;26.20;71.90;;;;;;5091129;28;20051;-81
2023/09/16 11:10:07;;;;;;;6.72;1.75;;;26.30;72.10;;;;;;5092359;28;20488;-83
2023/09/16 11:12:34;;;;;;;3.65;1.92;;;26.30;71.20;;;;;;5092055;28;20058;-80
2023/09/16 11:15:07;;;;;;;8.13;2.03;;;26.50;71.40;;;;;;5092151;28;20032;-81
2023/09/16 11:17:33;;;;;;;5.43;1.92;;;26.50;70.60;;;;;;5091865;28;20048;-80
2023/09/16 11:20:21;;;;;;;4.75;1.83;;;26.30;70.50;;;;;;5091064;28;20462;-81
2023/09/16 11:22:48;;;;;;;2.92;1.63;;;26.20;71.70;;;;;;5090903;28;20059;-80
2023/09/16 11:25:17;;;;;;;3.28;1.70;;;26.10;71.60;;;;;;5092211;28;20035;-81
2023/09/16 11:27:46;;;;;;;7.75;1.95;;;26.00;72.50;;;;;;5090787;28;20592;-82
2023/09/16 11:30:16;;;;;;;3.90;1.95;;;26.10;72.60;;;;;;5092165;28;20020;-82
2023/09/16 11:33:04;;;;;;;3.95;1.85;;;26.00;73.30;;;;;;5089761;28;20030;-81
2023/09/16 11:35:31;;;;;;;5.97;2.10;;;26.10;72.90;;;;;;5077808;28;20036;-79
2023/09/16 11:37:57;;;;;;;7.05;2.22;;;26.00;71.80;;;;;;5072788;28;20723;-81
2023/09/16 11:40:27;;;;;;;4.00;2.28;;;25.90;72.80;;;;;;5072559;28;20576;-80
2023/09/16 11:42:58;;;;;;;3.15;2.33;;;25.80;73.60;;;;;;5072301;28;20029;-81
2023/09/16 11:45:24;;;;;;;3.55;1.88;;;25.60;73.90;;;;;;5072341;28;20055;-81
2023/09/16 11:47:50;;;;;;;2.80;2.00;;;25.50;74.20;;;;;;5071272;28;20111;-82
2023/09/16 11:50:34;;;;;;;5.45;2.40;;;25.50;74.70;;;;;;5072270;28;20052;-81
2023/09/16 11:53:00;;;;;;;4.57;2.08;;;25.30;75.20;;;;;;5070075;28;20024;-81
2023/09/16 11:55:27;;;;;;;6.85;1.98;;;25.40;76.00;;;;;;5069933;28;20119;-82
2023/09/16 11:57:52;;;;;;;3.30;1.77;;;25.30;76.40;;;;;;5070621;28;20119;-81
2023/09/16 12:00:18;;;;;;;7.25;2.10;;;25.30;77.10;;;;;;5071774;28;20480;-82
2023/09/16 12:02:45;;;;;;;4.10;1.88;;;25.20;77.40;;;;;;5071762;28;20094;-82
2023/09/16 12:05:12;;;;;;;3.42;2.20;;;25.10;78.30;;;;;;5087291;28;20392;-81
2023/09/16 12:07:38;;;;;;;4.90;1.98;;;25.10;78.00;;;;;;5071481;28;20086;-82
2023/09/16 12:10:05;;;;;;;5.22;1.90;;;25.00;78.90;;;;;;5070628;28;20111;-82
2023/09/16 12:12:32;;;;;;;3.78;2.10;;;25.00;79.50;;;;;;5069401;28;20135;-81
2023/09/16 12:14:59;;;;;;;5.30;2.03;;;25.00;79.00;;;;;;5071272;28;20029;-81
2023/09/16 12:17:26;;;;;;;4.38;2.17;;;25.00;79.90;;;;;;5071023;28;20131;-82
2023/09/16 12:19:53;;;;;;;10.07;2.58;;;25.20;79.60;;;;;;5070236;28;20048;-81
2023/09/16 12:22:19;;;;;;;3.67;2.15;;;25.20;79.10;;;;;;5070376;28;20074;-80
2023/09/16 12:24:46;;;;;;;8.45;2.42;;;25.20;79.40;;;;;;5070486;28;20056;-82
2023/09/16 12:27:12;;;;;;;6.40;2.30;;;25.10;79.80;;;;;;5070085;28;20111;-82
2023/09/16 12:29:38;;;;;;;3.47;2.17;;;25.20;80.10;;;;;;5069585;28;20025;-80
2023/09/16 12:32:23;;;;;;;3.20;2.33;;;25.20;78.50;;;;;;5071129;28;20035;-82
2023/09/16 12:35:11;;;;;;;4.30;2.10;;;25.20;78.80;;;;;;5075204;28;20036;-82
2023/09/16 12:37:39;;;;;;;5.55;1.83;;;25.00;80.60;;;;;;5084738;28;20047;-82
2023/09/16 12:40:08;;;;;;;9.15;1.83;;;24.90;81.00;;;;;;5083306;28;20065;-83
2023/09/16 12:42:34;;;;;;;4.50;2.10;;;24.70;81.90;;;;;;5090405;28;20034;-84
2023/09/16 12:45:01;;;;;;;2.30;1.70;;;24.80;82.90;;;;;;5089060;28;20016;-82
2023/09/16 12:47:27;;;;;;;3.28;2.05;;;24.90;81.50;;;;;;5088642;28;20042;-83